sensor_id;sensor_type;location;lat;lon;timestamp;P1;durP1;ratioP1;P2;durP2;ratioP2
38224;SDS011;24025;48.138;11.428;2022-09-20T00:02:06;2.72;;;0.30;;
38224;SDS011;24025;48.138;11.428;2022-09-20T00:04:37;1.23;;;0.30;;
38224;SDS011;24025;48.138;11.428;2022-09-20T00:07:07;1.02;;;0.30;;
38224;SDS011;24025;48.138;11.428;2022-09-20T00:09:37;1.52;;;0.38;;
38224;SDS011;24025;48.138;11.428;2022-09-20T00:12:10;7.32;;;0.60;;
38224;SDS011;24025;48.138;11.428;2022-09-20T00:14:40;1.80;;;0.50;;
38224;SDS011;24025;48.138;11.428;2022-09-20T00:17:10;1.25;;;0.47;;
38224;SDS011;24025;48.138;11.428;2022-09-20T00:19:41;1.52;;;0.30;;
38224;SDS011;24025;48.138;11.428;2022-09-20T00:22:11;1.30;;;0.30;;
38224;SDS011;24025;48.138;11.428;2022-09-20T00:24:41;2.83;;;0.30;;
38224;SDS011;24025;48.138;11.428;2022-09-20T00:27:12;4.50;;;0.50;;
38224;SDS011;24025;48.138;11.428;2022-09-20T00:29:42;2.80;;;0.30;;
38224;SDS011;24025;48.138;11.428;2022-09-20T00:32:13;3.08;;;0.40;;
38224;SDS011;24025;48.138;11.428;2022-09-20T00:34:43;3.55;;;0.52;;
38224;SDS011;24025;48.138;11.428;2022-09-20T00:37:42;0.70;;;0.47;;
38224;SDS011;24025;48.138;11.428;2022-09-20T00:40:14;3.08;;;0.63;;
38224;SDS011;24025;48.138;11.428;2022-09-20T00:42:46;1.67;;;0.57;;
38224;SDS011;24025;48.138;11.428;2022-09-20T00:45:27;1.57;;;0.50;;
38224;SDS011;24025;48.138;11.428;2022-09-20T00:50:50;1.05;;;0.60;;
38224;SDS011;24025;48.138;11.428;2022-09-20T00:53:30;0.55;;;0.50;;
38224;SDS011;24025;48.138;11.428;2022-09-20T00:56:07;2.65;;;0.73;;
38224;SDS011;24025;48.138;11.428;2022-09-20T00:58:53;4.30;;;0.80;;
38224;SDS011;24025;48.138;11.428;2022-09-20T01:01:34;0.85;;;0.40;;
38224;SDS011;24025;48.138;11.428;2022-09-20T01:04:05;1.80;;;0.25;;
38224;SDS011;24025;48.138;11.428;2022-09-20T01:06:36;2.17;;;0.50;;
38224;SDS011;24025;48.138;11.428;2022-09-20T01:09:07;1.98;;;0.47;;
38224;SDS011;24025;48.138;11.428;2022-09-20T01:11:38;0.50;;;0.30;;
38224;SDS011;24025;48.138;11.428;2022-09-20T01:14:11;4.30;;;0.60;;
38224;SDS011;24025;48.138;11.428;2022-09-20T01:16:44;2.45;;;0.40;;
38224;SDS011;24025;48.138;11.428;2022-09-20T01:19:31;2.58;;;0.40;;
38224;SDS011;24025;48.138;11.428;2022-09-20T01:22:27;1.05;;;0.32;;
38224;SDS011;24025;48.138;11.428;2022-09-20T01:28:18;1.45;;;0.40;;
38224;SDS011;24025;48.138;11.428;2022-09-20T01:33:41;2.47;;;0.40;;
38224;SDS011;24025;48.138;11.428;2022-09-20T01:36:22;1.38;;;0.25;;
38224;SDS011;24025;48.138;11.428;2022-09-20T01:41:50;1.75;;;0.43;;
38224;SDS011;24025;48.138;11.428;2022-09-20T01:44:31;1.40;;;0.30;;
38224;SDS011;24025;48.138;11.428;2022-09-20T01:47:21;0.30;;;0.20;;
38224;SDS011;24025;48.138;11.428;2022-09-20T01:59:12;5.53;;;0.40;;
38224;SDS011;24025;48.138;11.428;2022-09-20T02:02:08;2.80;;;0.50;;
38224;SDS011;24025;48.138;11.428;2022-09-20T02:19:09;4.57;;;0.43;;
38224;SDS011;24025;48.138;11.428;2022-09-20T02:22:18;1.10;;;0.30;;
38224;SDS011;24025;48.138;11.428;2022-09-20T02:30:44;1.48;;;0.40;;
38224;SDS011;24025;48.138;11.428;2022-09-20T02:42:54;2.60;;;0.60;;
38224;SDS011;24025;48.138;11.428;2022-09-20T02:45:51;4.25;;;0.60;;
38224;SDS011;24025;48.138;11.428;2022-09-20T02:51:33;2.42;;;0.50;;
38224;SDS011;24025;48.138;11.428;2022-09-20T02:57:02;3.08;;;0.65;;
38224;SDS011;24025;48.138;11.428;2022-09-20T03:02:35;1.75;;;0.40;;
38224;SDS011;24025;48.138;11.428;2022-09-20T03:05:21;0.82;;;0.30;;
38224;SDS011;24025;48.138;11.428;2022-09-20T03:10:34;5.15;;;0.45;;
38224;SDS011;24025;48.138;11.428;2022-09-20T03:19:45;2.53;;;0.50;;
38224;SDS011;24025;48.138;11.428;2022-09-20T03:25:06;0.77;;;0.50;;
38224;SDS011;24025;48.138;11.428;2022-09-20T03:30:59;0.82;;;0.63;;
38224;SDS011;24025;48.138;11.428;2022-09-20T04:05:05;3.55;;;0.73;;
38224;SDS011;24025;48.138;11.428;2022-09-20T04:13:39;5.93;;;1.00;;
38224;SDS011;24025;48.138;11.428;2022-09-20T04:16:28;3.67;;;0.80;;
38224;SDS011;24025;48.138;11.428;2022-09-20T04:21:56;3.88;;;1.00;;
38224;SDS011;24025;48.138;11.428;2022-09-20T04:27:21;1.80;;;0.70;;
38224;SDS011;24025;48.138;11.428;2022-09-20T04:29:58;2.75;;;0.60;;
38224;SDS011;24025;48.138;11.428;2022-09-20T04:32:38;2.45;;;0.85;;
38224;SDS011;24025;48.138;11.428;2022-09-20T04:38:31;2.97;;;0.80;;
38224;SDS011;24025;48.138;11.428;2022-09-20T05:15:38;2.72;;;1.10;;
38224;SDS011;24025;48.138;11.428;2022-09-20T05:31:55;5.28;;;1.35;;
38224;SDS011;24025;48.138;11.428;2022-09-20T05:37:49;4.18;;;0.88;;
38224;SDS011;24025;48.138;11.428;2022-09-20T05:43:38;5.53;;;1.42;;
38224;SDS011;24025;48.138;11.428;2022-09-20T05:49:06;6.13;;;1.50;;
38224;SDS011;24025;48.138;11.428;2022-09-20T06:00:13;4.75;;;1.05;;
38224;SDS011;24025;48.138;11.428;2022-09-20T06:02:55;1.92;;;0.82;;
38224;SDS011;24025;48.138;11.428;2022-09-20T06:11:14;1.75;;;0.88;;
38224;SDS011;24025;48.138;11.428;2022-09-20T06:16:35;8.32;;;1.55;;
38224;SDS011;24025;48.138;11.428;2022-09-20T06:22:04;5.18;;;1.33;;
38224;SDS011;24025;48.138;11.428;2022-09-20T06:24:50;4.45;;;1.40;;
38224;SDS011;24025;48.138;11.428;2022-09-20T06:27:40;5.78;;;1.00;;
38224;SDS011;24025;48.138;11.428;2022-09-20T06:30:16;3.60;;;1.30;;
38224;SDS011;24025;48.138;11.428;2022-09-20T06:32:52;5.47;;;1.15;;
38224;SDS011;24025;48.138;11.428;2022-09-20T06:35:33;4.85;;;1.30;;
38224;SDS011;24025;48.138;11.428;2022-09-20T06:41:22;4.20;;;1.10;;
38224;SDS011;24025;48.138;11.428;2022-09-20T06:44:00;6.65;;;1.30;;
38224;SDS011;24025;48.138;11.428;2022-09-20T06:46:33;3.92;;;1.45;;
38224;SDS011;24025;48.138;11.428;2022-09-20T06:49:05;7.78;;;1.08;;
38224;SDS011;24025;48.138;11.428;2022-09-20T06:51:38;3.83;;;1.02;;
38224;SDS011;24025;48.138;11.428;2022-09-20T06:54:10;2.17;;;0.73;;
38224;SDS011;24025;48.138;11.428;2022-09-20T06:56:46;4.07;;;0.95;;
38224;SDS011;24025;48.138;11.428;2022-09-20T06:59:19;4.97;;;1.10;;
38224;SDS011;24025;48.138;11.428;2022-09-20T07:01:49;7.78;;;1.08;;
38224;SDS011;24025;48.138;11.428;2022-09-20T07:04:20;4.50;;;1.20;;
38224;SDS011;24025;48.138;11.428;2022-09-20T07:06:58;5.60;;;1.20;;
38224;SDS011;24025;48.138;11.428;2022-09-20T07:09:30;3.83;;;1.13;;
38224;SDS011;24025;48.138;11.428;2022-09-20T07:12:00;11.63;;;1.55;;
38224;SDS011;24025;48.138;11.428;2022-09-20T07:14:31;4.47;;;1.40;;
38224;SDS011;24025;48.138;11.428;2022-09-20T07:17:01;4.38;;;1.17;;
38224;SDS011;24025;48.138;11.428;2022-09-20T07:19:32;9.43;;;1.33;;
38224;SDS011;24025;48.138;11.428;2022-09-20T07:22:03;5.55;;;1.02;;
38224;SDS011;24025;48.138;11.428;2022-09-20T07:24:33;4.85;;;1.52;;
38224;SDS011;24025;48.138;11.428;2022-09-20T07:27:04;4.60;;;1.27;;
38224;SDS011;24025;48.138;11.428;2022-09-20T07:29:34;4.28;;;0.95;;
38224;SDS011;24025;48.138;11.428;2022-09-20T07:32:05;3.70;;;1.25;;
38224;SDS011;24025;48.138;11.428;2022-09-20T07:34:35;6.55;;;1.38;;
38224;SDS011;24025;48.138;11.428;2022-09-20T07:37:05;3.75;;;1.00;;
38224;SDS011;24025;48.138;11.428;2022-09-20T07:39:36;5.75;;;1.25;;
38224;SDS011;24025;48.138;11.428;2022-09-20T07:42:07;4.55;;;1.38;;
38224;SDS011;24025;48.138;11.428;2022-09-20T07:44:37;6.38;;;1.00;;
38224;SDS011;24025;48.138;11.428;2022-09-20T07:47:11;4.43;;;1.10;;
38224;SDS011;24025;48.138;11.428;2022-09-20T07:49:43;10.05;;;1.05;;
38224;SDS011;24025;48.138;11.428;2022-09-20T07:52:13;5.90;;;1.65;;
38224;SDS011;24025;48.138;11.428;2022-09-20T07:54:44;5.10;;;1.40;;
38224;SDS011;24025;48.138;11.428;2022-09-20T07:57:15;5.03;;;1.17;;
38224;SDS011;24025;48.138;11.428;2022-09-20T07:59:46;3.17;;;1.30;;
38224;SDS011;24025;48.138;11.428;2022-09-20T08:02:16;4.80;;;1.88;;
38224;SDS011;24025;48.138;11.428;2022-09-20T08:04:46;5.57;;;1.30;;
38224;SDS011;24025;48.138;11.428;2022-09-20T08:07:18;9.75;;;1.65;;
38224;SDS011;24025;48.138;11.428;2022-09-20T08:09:49;3.75;;;0.90;;
38224;SDS011;24025;48.138;11.428;2022-09-20T08:12:19;2.40;;;1.35;;
38224;SDS011;24025;48.138;11.428;2022-09-20T08:14:50;7.32;;;1.38;;
38224;SDS011;24025;48.138;11.428;2022-09-20T08:17:20;3.58;;;1.63;;
38224;SDS011;24025;48.138;11.428;2022-09-20T08:19:50;6.50;;;1.67;;
38224;SDS011;24025;48.138;11.428;2022-09-20T08:22:22;5.85;;;1.70;;
38224;SDS011;24025;48.138;11.428;2022-09-20T08:24:53;16.10;;;2.08;;
38224;SDS011;24025;48.138;11.428;2022-09-20T08:27:23;4.03;;;1.42;;
38224;SDS011;24025;48.138;11.428;2022-09-20T08:29:54;6.35;;;1.40;;
38224;SDS011;24025;48.138;11.428;2022-09-20T08:32:26;5.05;;;1.38;;
38224;SDS011;24025;48.138;11.428;2022-09-20T08:34:56;4.97;;;1.48;;
38224;SDS011;24025;48.138;11.428;2022-09-20T08:37:27;7.10;;;1.58;;
38224;SDS011;24025;48.138;11.428;2022-09-20T08:39:57;4.85;;;1.70;;
38224;SDS011;24025;48.138;11.428;2022-09-20T08:42:31;8.55;;;1.60;;
38224;SDS011;24025;48.138;11.428;2022-09-20T08:45:05;4.32;;;1.52;;
38224;SDS011;24025;48.138;11.428;2022-09-20T08:47:48;3.65;;;1.70;;
38224;SDS011;24025;48.138;11.428;2022-09-20T08:50:23;7.72;;;2.03;;
38224;SDS011;24025;48.138;11.428;2022-09-20T08:52:54;8.00;;;1.92;;
38224;SDS011;24025;48.138;11.428;2022-09-20T08:55:29;4.50;;;1.85;;
38224;SDS011;24025;48.138;11.428;2022-09-20T08:58:01;8.80;;;1.67;;
38224;SDS011;24025;48.138;11.428;2022-09-20T09:00:32;10.23;;;1.50;;
38224;SDS011;24025;48.138;11.428;2022-09-20T09:03:05;4.78;;;1.60;;
38224;SDS011;24025;48.138;11.428;2022-09-20T09:05:44;4.32;;;1.60;;
38224;SDS011;24025;48.138;11.428;2022-09-20T09:10:48;4.95;;;1.83;;
38224;SDS011;24025;48.138;11.428;2022-09-20T09:16:21;8.70;;;2.03;;
38224;SDS011;24025;48.138;11.428;2022-09-20T09:18:53;9.20;;;2.88;;
38224;SDS011;24025;48.138;11.428;2022-09-20T09:21:25;5.38;;;1.80;;
38224;SDS011;24025;48.138;11.428;2022-09-20T09:24:02;6.38;;;2.00;;
38224;SDS011;24025;48.138;11.428;2022-09-20T09:26:36;4.13;;;1.83;;
38224;SDS011;24025;48.138;11.428;2022-09-20T09:29:19;6.72;;;1.70;;
38224;SDS011;24025;48.138;11.428;2022-09-20T09:31:50;5.20;;;2.05;;
38224;SDS011;24025;48.138;11.428;2022-09-20T09:34:27;6.40;;;1.70;;
38224;SDS011;24025;48.138;11.428;2022-09-20T09:36:59;5.20;;;1.48;;
38224;SDS011;24025;48.138;11.428;2022-09-20T09:39:30;6.00;;;1.77;;
38224;SDS011;24025;48.138;11.428;2022-09-20T09:42:19;7.32;;;1.75;;
38224;SDS011;24025;48.138;11.428;2022-09-20T09:44:51;6.63;;;2.05;;
38224;SDS011;24025;48.138;11.428;2022-09-20T09:47:23;3.25;;;1.52;;
38224;SDS011;24025;48.138;11.428;2022-09-20T09:49:59;6.50;;;1.63;;
38224;SDS011;24025;48.138;11.428;2022-09-20T09:52:30;2.20;;;1.20;;
38224;SDS011;24025;48.138;11.428;2022-09-20T10:00:29;10.88;;;1.10;;
38224;SDS011;24025;48.138;11.428;2022-09-20T10:06:07;7.20;;;1.30;;
38224;SDS011;24025;48.138;11.428;2022-09-20T10:09:06;1.63;;;0.85;;
38224;SDS011;24025;48.138;11.428;2022-09-20T10:11:54;3.97;;;1.20;;
38224;SDS011;24025;48.138;11.428;2022-09-20T10:32:21;4.32;;;0.60;;
38224;SDS011;24025;48.138;11.428;2022-09-20T10:37:51;6.40;;;1.10;;
38224;SDS011;24025;48.138;11.428;2022-09-20T10:41:02;6.78;;;1.35;;
38224;SDS011;24025;48.138;11.428;2022-09-20T10:47:16;5.72;;;1.02;;
38224;SDS011;24025;48.138;11.428;2022-09-20T10:55:26;4.82;;;0.70;;
38224;SDS011;24025;48.138;11.428;2022-09-20T10:58:10;2.92;;;0.82;;
38224;SDS011;24025;48.138;11.428;2022-09-20T11:04:06;4.10;;;0.90;;
38224;SDS011;24025;48.138;11.428;2022-09-20T11:09:56;3.72;;;1.10;;
38224;SDS011;24025;48.138;11.428;2022-09-20T11:12:57;9.07;;;1.13;;
38224;SDS011;24025;48.138;11.428;2022-09-20T11:15:37;9.38;;;1.08;;
38224;SDS011;24025;48.138;11.428;2022-09-20T11:21:02;5.35;;;0.65;;
38224;SDS011;24025;48.138;11.428;2022-09-20T11:26:38;6.40;;;0.98;;
38224;SDS011;24025;48.138;11.428;2022-09-20T11:32:11;3.83;;;1.00;;
38224;SDS011;24025;48.138;11.428;2022-09-20T11:34:58;4.75;;;0.63;;
38224;SDS011;24025;48.138;11.428;2022-09-20T11:37:34;2.55;;;0.80;;
38224;SDS011;24025;48.138;11.428;2022-09-20T11:40:14;6.30;;;0.93;;
38224;SDS011;24025;48.138;11.428;2022-09-20T11:43:00;3.25;;;1.10;;
38224;SDS011;24025;48.138;11.428;2022-09-20T11:45:36;4.05;;;0.80;;
38224;SDS011;24025;48.138;11.428;2022-09-20T11:56:27;5.93;;;0.88;;
38224;SDS011;24025;48.138;11.428;2022-09-20T11:59:02;4.88;;;0.88;;
38224;SDS011;24025;48.138;11.428;2022-09-20T12:01:38;3.80;;;0.95;;
38224;SDS011;24025;48.138;11.428;2022-09-20T12:04:18;3.25;;;0.90;;
38224;SDS011;24025;48.138;11.428;2022-09-20T12:07:02;2.63;;;0.57;;
38224;SDS011;24025;48.138;11.428;2022-09-20T12:09:39;4.57;;;0.80;;
38224;SDS011;24025;48.138;11.428;2022-09-20T12:12:34;4.32;;;0.73;;
38224;SDS011;24025;48.138;11.428;2022-09-20T12:15:27;10.85;;;0.65;;
38224;SDS011;24025;48.138;11.428;2022-09-20T12:18:02;3.53;;;0.80;;
38224;SDS011;24025;48.138;11.428;2022-09-20T12:28:53;5.25;;;0.90;;
38224;SDS011;24025;48.138;11.428;2022-09-20T12:39:15;1.05;;;0.75;;
38224;SDS011;24025;48.138;11.428;2022-09-20T12:41:57;6.18;;;0.85;;
38224;SDS011;24025;48.138;11.428;2022-09-20T12:47:22;5.18;;;1.33;;
38224;SDS011;24025;48.138;11.428;2022-09-20T12:49:56;1.95;;;0.43;;
38224;SDS011;24025;48.138;11.428;2022-09-20T12:52:54;4.03;;;0.75;;
38224;SDS011;24025;48.138;11.428;2022-09-20T13:19:51;5.75;;;0.75;;
38224;SDS011;24025;48.138;11.428;2022-09-20T13:22:28;6.60;;;0.82;;
38224;SDS011;24025;48.138;11.428;2022-09-20T13:25:06;3.40;;;1.02;;
38224;SDS011;24025;48.138;11.428;2022-09-20T13:27:46;8.50;;;0.70;;
38224;SDS011;24025;48.138;11.428;2022-09-20T13:30:24;2.92;;;0.63;;
38224;SDS011;24025;48.138;11.428;2022-09-20T13:32:56;2.88;;;0.70;;
38224;SDS011;24025;48.138;11.428;2022-09-20T13:35:27;4.70;;;0.80;;
38224;SDS011;24025;48.138;11.428;2022-09-20T13:38:01;2.53;;;0.70;;
38224;SDS011;24025;48.138;11.428;2022-09-20T13:40:37;1.95;;;0.75;;
38224;SDS011;24025;48.138;11.428;2022-09-20T13:46:11;4.75;;;1.20;;
38224;SDS011;24025;48.138;11.428;2022-09-20T13:48:45;2.75;;;0.90;;
38224;SDS011;24025;48.138;11.428;2022-09-20T13:51:18;2.88;;;0.50;;
38224;SDS011;24025;48.138;11.428;2022-09-20T13:54:16;2.50;;;0.73;;
38224;SDS011;24025;48.138;11.428;2022-09-20T13:56:57;2.55;;;0.60;;
38224;SDS011;24025;48.138;11.428;2022-09-20T13:59:32;2.85;;;0.80;;
38224;SDS011;24025;48.138;11.428;2022-09-20T14:05:03;3.15;;;0.68;;
38224;SDS011;24025;48.138;11.428;2022-09-20T14:07:34;2.83;;;0.90;;
38224;SDS011;24025;48.138;11.428;2022-09-20T14:10:22;4.82;;;0.95;;
38224;SDS011;24025;48.138;11.428;2022-09-20T14:13:06;4.05;;;0.77;;
38224;SDS011;24025;48.138;11.428;2022-09-20T14:15:42;4.35;;;0.82;;
38224;SDS011;24025;48.138;11.428;2022-09-20T14:18:16;3.10;;;0.90;;
38224;SDS011;24025;48.138;11.428;2022-09-20T14:20:49;3.83;;;0.75;;
38224;SDS011;24025;48.138;11.428;2022-09-20T14:23:20;4.63;;;0.53;;
38224;SDS011;24025;48.138;11.428;2022-09-20T14:26:06;3.33;;;0.80;;
38224;SDS011;24025;48.138;11.428;2022-09-20T14:31:29;3.60;;;0.73;;
38224;SDS011;24025;48.138;11.428;2022-09-20T14:34:03;4.05;;;0.60;;
38224;SDS011;24025;48.138;11.428;2022-09-20T14:36:34;4.70;;;0.43;;
38224;SDS011;24025;48.138;11.428;2022-09-20T14:39:04;3.35;;;0.85;;
38224;SDS011;24025;48.138;11.428;2022-09-20T14:41:45;3.35;;;0.90;;
38224;SDS011;24025;48.138;11.428;2022-09-20T14:46:56;2.90;;;0.60;;
38224;SDS011;24025;48.138;11.428;2022-09-20T14:49:31;5.50;;;0.90;;
38224;SDS011;24025;48.138;11.428;2022-09-20T14:52:34;2.33;;;0.75;;
38224;SDS011;24025;48.138;11.428;2022-09-20T14:57:47;4.25;;;0.80;;
38224;SDS011;24025;48.138;11.428;2022-09-20T15:00:17;3.90;;;0.70;;
38224;SDS011;24025;48.138;11.428;2022-09-20T15:02:49;2.47;;;0.63;;
38224;SDS011;24025;48.138;11.428;2022-09-20T15:05:24;5.43;;;0.90;;
38224;SDS011;24025;48.138;11.428;2022-09-20T15:07:57;5.85;;;0.52;;
38224;SDS011;24025;48.138;11.428;2022-09-20T15:10:27;7.25;;;0.70;;
38224;SDS011;24025;48.138;11.428;2022-09-20T15:12:59;6.45;;;1.08;;
38224;SDS011;24025;48.138;11.428;2022-09-20T15:15:29;6.30;;;1.00;;
38224;SDS011;24025;48.138;11.428;2022-09-20T15:18:01;3.97;;;0.90;;
38224;SDS011;24025;48.138;11.428;2022-09-20T15:20:32;4.07;;;2.03;;
38224;SDS011;24025;48.138;11.428;2022-09-20T15:23:02;6.97;;;4.13;;
38224;SDS011;24025;48.138;11.428;2022-09-20T15:25:32;3.20;;;1.52;;
38224;SDS011;24025;48.138;11.428;2022-09-20T15:28:03;1.80;;;0.73;;
38224;SDS011;24025;48.138;11.428;2022-09-20T15:30:33;6.93;;;1.05;;
38224;SDS011;24025;48.138;11.428;2022-09-20T15:33:05;10.18;;;1.25;;
38224;SDS011;24025;48.138;11.428;2022-09-20T15:35:35;2.75;;;0.77;;
38224;SDS011;24025;48.138;11.428;2022-09-20T15:38:06;1.45;;;0.52;;
38224;SDS011;24025;48.138;11.428;2022-09-20T15:40:46;3.42;;;1.00;;
38224;SDS011;24025;48.138;11.428;2022-09-20T15:43:18;5.65;;;0.77;;
38224;SDS011;24025;48.138;11.428;2022-09-20T15:45:56;2.03;;;0.68;;
38224;SDS011;24025;48.138;11.428;2022-09-20T15:48:31;2.05;;;0.70;;
38224;SDS011;24025;48.138;11.428;2022-09-20T15:51:04;4.60;;;0.55;;
38224;SDS011;24025;48.138;11.428;2022-09-20T15:53:37;4.50;;;1.23;;
38224;SDS011;24025;48.138;11.428;2022-09-20T15:56:17;2.95;;;1.10;;
38224;SDS011;24025;48.138;11.428;2022-09-20T15:58:53;3.05;;;0.98;;
38224;SDS011;24025;48.138;11.428;2022-09-20T16:01:38;7.95;;;0.68;;
38224;SDS011;24025;48.138;11.428;2022-09-20T16:04:16;5.22;;;0.80;;
38224;SDS011;24025;48.138;11.428;2022-09-20T16:06:48;2.92;;;0.63;;
38224;SDS011;24025;48.138;11.428;2022-09-20T16:09:19;4.20;;;0.68;;
38224;SDS011;24025;48.138;11.428;2022-09-20T16:11:49;7.53;;;0.95;;
38224;SDS011;24025;48.138;11.428;2022-09-20T16:14:20;5.68;;;0.63;;
38224;SDS011;24025;48.138;11.428;2022-09-20T16:16:50;2.22;;;0.65;;
38224;SDS011;24025;48.138;11.428;2022-09-20T16:19:21;3.80;;;0.70;;
38224;SDS011;24025;48.138;11.428;2022-09-20T16:21:53;4.70;;;1.00;;
38224;SDS011;24025;48.138;11.428;2022-09-20T16:24:26;6.07;;;0.65;;
38224;SDS011;24025;48.138;11.428;2022-09-20T16:26:59;4.03;;;0.77;;
38224;SDS011;24025;48.138;11.428;2022-09-20T16:29:30;2.67;;;0.70;;
38224;SDS011;24025;48.138;11.428;2022-09-20T16:32:02;3.67;;;0.50;;
38224;SDS011;24025;48.138;11.428;2022-09-20T16:34:34;4.70;;;0.60;;
38224;SDS011;24025;48.138;11.428;2022-09-20T16:37:08;1.30;;;0.50;;
38224;SDS011;24025;48.138;11.428;2022-09-20T16:39:40;5.22;;;1.02;;
38224;SDS011;24025;48.138;11.428;2022-09-20T16:42:11;2.55;;;0.55;;
38224;SDS011;24025;48.138;11.428;2022-09-20T16:44:42;3.15;;;0.70;;
38224;SDS011;24025;48.138;11.428;2022-09-20T16:47:13;5.57;;;0.65;;
38224;SDS011;24025;48.138;11.428;2022-09-20T16:49:51;8.27;;;1.38;;
38224;SDS011;24025;48.138;11.428;2022-09-20T16:52:23;9.48;;;1.30;;
38224;SDS011;24025;48.138;11.428;2022-09-20T16:57:25;3.35;;;1.02;;
38224;SDS011;24025;48.138;11.428;2022-09-20T16:59:56;3.28;;;1.17;;
38224;SDS011;24025;48.138;11.428;2022-09-20T17:02:26;4.20;;;0.60;;
38224;SDS011;24025;48.138;11.428;2022-09-20T17:04:57;2.28;;;0.75;;
38224;SDS011;24025;48.138;11.428;2022-09-20T17:07:27;5.45;;;1.10;;
38224;SDS011;24025;48.138;11.428;2022-09-20T17:09:57;5.03;;;1.30;;
38224;SDS011;24025;48.138;11.428;2022-09-20T17:12:30;7.50;;;1.33;;
38224;SDS011;24025;48.138;11.428;2022-09-20T17:15:02;6.43;;;1.08;;
38224;SDS011;24025;48.138;11.428;2022-09-20T17:17:34;5.53;;;1.00;;
38224;SDS011;24025;48.138;11.428;2022-09-20T17:20:05;4.68;;;0.90;;
38224;SDS011;24025;48.138;11.428;2022-09-20T17:22:36;3.40;;;0.80;;
38224;SDS011;24025;48.138;11.428;2022-09-20T17:25:07;8.23;;;1.10;;
38224;SDS011;24025;48.138;11.428;2022-09-20T17:27:37;5.38;;;1.90;;
38224;SDS011;24025;48.138;11.428;2022-09-20T17:30:08;8.27;;;1.30;;
38224;SDS011;24025;48.138;11.428;2022-09-20T17:32:39;7.53;;;1.20;;
38224;SDS011;24025;48.138;11.428;2022-09-20T17:35:10;6.22;;;1.27;;
38224;SDS011;24025;48.138;11.428;2022-09-20T17:37:40;6.10;;;1.00;;
38224;SDS011;24025;48.138;11.428;2022-09-20T17:40:10;1.85;;;1.17;;
38224;SDS011;24025;48.138;11.428;2022-09-20T17:42:41;7.10;;;1.13;;
38224;SDS011;24025;48.138;11.428;2022-09-20T17:45:13;6.93;;;2.17;;
38224;SDS011;24025;48.138;11.428;2022-09-20T17:47:43;4.68;;;1.80;;
38224;SDS011;24025;48.138;11.428;2022-09-20T17:50:14;7.13;;;1.30;;
38224;SDS011;24025;48.138;11.428;2022-09-20T17:52:45;7.20;;;1.05;;
38224;SDS011;24025;48.138;11.428;2022-09-20T17:55:15;7.82;;;1.27;;
38224;SDS011;24025;48.138;11.428;2022-09-20T17:57:45;5.78;;;2.30;;
38224;SDS011;24025;48.138;11.428;2022-09-20T18:00:16;9.35;;;2.17;;
38224;SDS011;24025;48.138;11.428;2022-09-20T18:02:46;6.28;;;2.67;;
38224;SDS011;24025;48.138;11.428;2022-09-20T18:05:17;5.65;;;2.20;;
38224;SDS011;24025;48.138;11.428;2022-09-20T18:07:50;5.50;;;2.67;;
38224;SDS011;24025;48.138;11.428;2022-09-20T18:10:21;8.73;;;3.50;;
38224;SDS011;24025;48.138;11.428;2022-09-20T18:12:51;5.25;;;2.85;;
38224;SDS011;24025;48.138;11.428;2022-09-20T18:15:21;12.15;;;4.10;;
38224;SDS011;24025;48.138;11.428;2022-09-20T18:17:52;4.57;;;2.40;;
38224;SDS011;24025;48.138;11.428;2022-09-20T18:20:23;4.22;;;2.88;;
38224;SDS011;24025;48.138;11.428;2022-09-20T18:22:53;8.35;;;1.98;;
38224;SDS011;24025;48.138;11.428;2022-09-20T18:25:23;7.82;;;2.13;;
38224;SDS011;24025;48.138;11.428;2022-09-20T18:27:54;3.85;;;1.75;;
38224;SDS011;24025;48.138;11.428;2022-09-20T18:30:24;22.48;;;3.15;;
38224;SDS011;24025;48.138;11.428;2022-09-20T18:32:55;12.88;;;1.75;;
38224;SDS011;24025;48.138;11.428;2022-09-20T18:35:25;4.82;;;1.80;;
38224;SDS011;24025;48.138;11.428;2022-09-20T18:37:55;6.00;;;2.00;;
38224;SDS011;24025;48.138;11.428;2022-09-20T18:40:26;11.32;;;2.13;;
38224;SDS011;24025;48.138;11.428;2022-09-20T18:42:58;7.75;;;2.10;;
38224;SDS011;24025;48.138;11.428;2022-09-20T18:45:29;6.75;;;2.10;;
38224;SDS011;24025;48.138;11.428;2022-09-20T18:48:00;7.40;;;2.30;;
38224;SDS011;24025;48.138;11.428;2022-09-20T18:50:30;6.30;;;1.95;;
38224;SDS011;24025;48.138;11.428;2022-09-20T18:53:01;3.08;;;1.67;;
38224;SDS011;24025;48.138;11.428;2022-09-20T18:55:31;8.00;;;2.55;;
38224;SDS011;24025;48.138;11.428;2022-09-20T18:58:03;7.57;;;2.43;;
38224;SDS011;24025;48.138;11.428;2022-09-20T19:00:33;6.30;;;2.35;;
38224;SDS011;24025;48.138;11.428;2022-09-20T19:03:13;5.10;;;2.15;;
38224;SDS011;24025;48.138;11.428;2022-09-20T19:05:52;11.68;;;3.45;;
38224;SDS011;24025;48.138;11.428;2022-09-20T19:08:30;7.50;;;2.95;;
38224;SDS011;24025;48.138;11.428;2022-09-20T19:11:08;8.30;;;3.70;;
38224;SDS011;24025;48.138;11.428;2022-09-20T19:16:19;9.52;;;3.05;;
38224;SDS011;24025;48.138;11.428;2022-09-20T19:27:57;11.02;;;3.28;;
38224;SDS011;24025;48.138;11.428;2022-09-20T19:30:27;8.85;;;3.88;;
38224;SDS011;24025;48.138;11.428;2022-09-20T19:32:58;11.18;;;6.78;;
38224;SDS011;24025;48.138;11.428;2022-09-20T19:35:34;14.23;;;3.95;;
38224;SDS011;24025;48.138;11.428;2022-09-20T19:38:10;9.48;;;3.33;;
38224;SDS011;24025;48.138;11.428;2022-09-20T19:43:37;9.65;;;2.20;;
38224;SDS011;24025;48.138;11.428;2022-09-20T19:49:13;7.57;;;2.53;;
38224;SDS011;24025;48.138;11.428;2022-09-20T19:51:45;8.82;;;2.80;;
38224;SDS011;24025;48.138;11.428;2022-09-20T19:54:16;8.40;;;3.03;;
38224;SDS011;24025;48.138;11.428;2022-09-20T19:56:50;7.10;;;3.33;;
38224;SDS011;24025;48.138;11.428;2022-09-20T19:59:24;8.13;;;3.10;;
38224;SDS011;24025;48.138;11.428;2022-09-20T20:04:26;10.27;;;1.70;;
38224;SDS011;24025;48.138;11.428;2022-09-20T20:06:58;3.20;;;1.65;;
38224;SDS011;24025;48.138;11.428;2022-09-20T20:09:44;17.25;;;1.85;;
38224;SDS011;24025;48.138;11.428;2022-09-20T20:12:21;7.43;;;2.38;;
38224;SDS011;24025;48.138;11.428;2022-09-20T20:18:15;6.07;;;1.52;;
38224;SDS011;24025;48.138;11.428;2022-09-20T20:20:50;4.80;;;2.25;;
38224;SDS011;24025;48.138;11.428;2022-09-20T20:23:31;6.75;;;2.25;;
38224;SDS011;24025;48.138;11.428;2022-09-20T20:26:18;6.15;;;2.50;;
38224;SDS011;24025;48.138;11.428;2022-09-20T20:28:53;5.18;;;2.35;;
38224;SDS011;24025;48.138;11.428;2022-09-20T20:31:23;4.15;;;1.48;;
38224;SDS011;24025;48.138;11.428;2022-09-20T20:33:53;4.68;;;1.25;;
38224;SDS011;24025;48.138;11.428;2022-09-20T20:36:24;6.03;;;1.13;;
38224;SDS011;24025;48.138;11.428;2022-09-20T20:38:54;4.00;;;1.10;;
38224;SDS011;24025;48.138;11.428;2022-09-20T20:41:25;1.73;;;0.90;;
38224;SDS011;24025;48.138;11.428;2022-09-20T20:43:56;5.07;;;1.00;;
38224;SDS011;24025;48.138;11.428;2022-09-20T20:46:26;2.10;;;0.80;;
38224;SDS011;24025;48.138;11.428;2022-09-20T20:48:57;4.13;;;2.05;;
38224;SDS011;24025;48.138;11.428;2022-09-20T20:51:27;2.83;;;0.90;;
38224;SDS011;24025;48.138;11.428;2022-09-20T20:53:58;5.90;;;1.58;;
38224;SDS011;24025;48.138;11.428;2022-09-20T20:56:29;4.32;;;1.77;;
38224;SDS011;24025;48.138;11.428;2022-09-20T20:59:01;4.45;;;2.05;;
38224;SDS011;24025;48.138;11.428;2022-09-20T21:01:33;5.40;;;2.00;;
38224;SDS011;24025;48.138;11.428;2022-09-20T21:04:05;6.47;;;1.65;;
38224;SDS011;24025;48.138;11.428;2022-09-20T21:06:40;2.75;;;1.02;;
38224;SDS011;24025;48.138;11.428;2022-09-20T21:09:11;5.03;;;1.23;;
38224;SDS011;24025;48.138;11.428;2022-09-20T21:11:42;2.95;;;1.20;;